createdAt,value
2022-10-01T00:01:09.266Z,68.90
2022-10-01T00:03:48.032Z,74.00
2022-10-01T00:06:20.226Z,73.30
2022-10-01T00:08:50.109Z,70.60
2022-10-01T00:11:21.565Z,68.80
2022-10-01T00:13:51.503Z,66.80
2022-10-01T00:16:22.318Z,70.70
2022-10-01T00:18:53.061Z,74.20
2022-10-01T00:21:23.534Z,66.90
2022-10-01T00:23:55.636Z,71.00
2022-10-01T00:26:31.444Z,72.00
2022-10-01T00:29:04.276Z,71.20
2022-10-01T00:31:35.120Z,69.20
2022-10-01T00:34:04.666Z,70.90
2022-10-01T00:36:35.157Z,68.60
2022-10-01T00:39:07.457Z,74.20
2022-10-01T00:41:37.567Z,76.80
2022-10-01T00:44:28.220Z,71.80
2022-10-01T00:47:01.643Z,71.20
2022-10-01T00:49:33.326Z,71.40
2022-10-01T00:52:04.767Z,70.30
2022-10-01T00:54:37.622Z,68.30
2022-10-01T00:57:09.115Z,64.80
2022-10-01T00:59:38.661Z,63.40
2022-10-01T01:02:07.711Z,60.90
2022-10-01T01:04:39.469Z,59.70
2022-10-01T01:07:10.240Z,56.80
2022-10-01T01:09:41.311Z,55.40
2022-10-01T01:12:17.570Z,58.60
2022-10-01T01:14:54.258Z,57.40
2022-10-01T01:17:24.666Z,57.80
2022-10-01T01:20:05.023Z,57.20
2022-10-01T01:22:36.628Z,56.60
2022-10-01T01:25:10.982Z,59.00
2022-10-01T01:27:42.872Z,57.60
2022-10-01T01:30:13.771Z,59.50
2022-10-01T01:32:50.181Z,62.70
2022-10-01T01:35:24.415Z,56.10
2022-10-01T01:37:56.740Z,55.60
2022-10-01T01:40:26.268Z,60.00
2022-10-01T01:42:56.432Z,56.20
2022-10-01T01:45:28.942Z,56.50
2022-10-01T01:47:59.668Z,57.20
2022-10-01T01:50:34.522Z,57.10
2022-10-01T01:53:03.058Z,57.50
2022-10-01T01:55:32.505Z,54.40
2022-10-01T01:58:01.621Z,59.00
2022-10-01T02:00:30.469Z,57.80
2022-10-01T02:02:59.109Z,57.80
2022-10-01T02:05:41.687Z,56.40
2022-10-01T02:08:25.910Z,55.40
2022-10-01T02:11:16.734Z,57.20
2022-10-01T02:13:51.572Z,62.10
2022-10-01T02:16:25.368Z,56.40
2022-10-01T02:18:59.235Z,57.50
2022-10-01T02:21:33.388Z,58.90
2022-10-01T02:24:08.862Z,53.70
2022-10-01T02:26:40.118Z,54.90
2022-10-01T02:29:12.576Z,54.50
2022-10-01T02:31:42.435Z,56.70
2022-10-01T02:34:19.956Z,64.20
2022-10-01T02:36:50.064Z,59.30
2022-10-01T02:39:21.244Z,59.10
2022-10-01T02:41:53.367Z,58.90
2022-10-01T02:44:29.664Z,61.50
2022-10-01T02:47:07.217Z,59.10
2022-10-01T02:49:39.494Z,59.40
2022-10-01T02:52:13.023Z,58.60
2022-10-01T02:54:46.998Z,57.70
2022-10-01T02:57:22.922Z,62.90
2022-10-01T02:59:57.686Z,63.40
2022-10-01T03:02:28.216Z,61.80
2022-10-01T03:04:59.178Z,58.70
2022-10-01T03:07:30.611Z,60.40
2022-10-01T03:10:02.294Z,60.40
2022-10-01T03:12:32.757Z,61.80
2022-10-01T03:15:03.390Z,62.40
2022-10-01T03:17:32.549Z,65.30
2022-10-01T03:20:03.461Z,64.00
2022-10-01T03:22:33.029Z,62.30
2022-10-01T03:25:03.354Z,63.00
2022-10-01T03:27:34.408Z,63.30
2022-10-01T03:30:08.084Z,62.70
2022-10-01T03:32:37.578Z,62.90
2022-10-01T03:35:09.287Z,69.30
2022-10-01T03:37:39.349Z,67.90
2022-10-01T03:40:10.403Z,69.00
2022-10-01T03:42:39.658Z,71.50
2022-10-01T03:45:10.686Z,71.40
2022-10-01T03:47:39.351Z,72.00
2022-10-01T03:50:10.209Z,70.00
2022-10-01T03:52:38.871Z,75.50
2022-10-01T03:55:09.584Z,74.10
2022-10-01T03:57:40.225Z,69.00
2022-10-01T04:00:13.455Z,76.10
2022-10-01T04:02:42.292Z,75.10
2022-10-01T04:05:11.804Z,76.00
2022-10-01T04:07:42.543Z,81.60
2022-10-01T04:10:13.476Z,82.90
2022-10-01T04:12:43.691Z,81.10
2022-10-01T04:15:14.731Z,81.00
2022-10-01T04:17:46.059Z,82.60
2022-10-01T04:20:17.529Z,83.40
2022-10-01T04:22:46.653Z,88.60
2022-10-01T04:25:15.847Z,89.10
2022-10-01T04:27:56.584Z,92.80
2022-10-01T04:30:26.224Z,94.70
2022-10-01T04:32:55.817Z,112.70
2022-10-01T04:35:24.665Z,107.50
2022-10-01T04:38:05.855Z,99.60
2022-10-01T04:40:36.738Z,90.90
2022-10-01T04:43:07.844Z,96.50
2022-10-01T04:45:36.462Z,100.80
2022-10-01T04:48:08.313Z,120.50
2022-10-01T04:50:37.372Z,116.90
2022-10-01T04:53:07.829Z,121.10
2022-10-01T04:55:36.399Z,147.00
2022-10-01T04:58:05.075Z,152.80
2022-10-01T05:00:34.699Z,103.80
2022-10-01T05:03:03.367Z,116.80
2022-10-01T05:05:34.691Z,120.10
2022-10-01T05:08:06.246Z,97.60
2022-10-01T05:10:36.833Z,99.50
2022-10-01T05:13:05.533Z,93.00
2022-10-01T05:15:36.239Z,95.20
2022-10-01T05:18:04.776Z,107.80
2022-10-01T05:20:34.084Z,96.60
2022-10-01T05:23:05.070Z,79.30
2022-10-01T05:25:34.263Z,94.90
2022-10-01T05:28:04.729Z,98.80
2022-10-01T05:30:34.030Z,89.10
2022-10-01T05:33:04.414Z,92.00
2022-10-01T05:35:35.780Z,98.80
2022-10-01T05:38:04.256Z,89.30
2022-10-01T05:40:33.540Z,102.40
2022-10-01T05:43:03.951Z,91.80
2022-10-01T05:45:32.961Z,92.70
2022-10-01T05:48:06.088Z,100.00
2022-10-01T05:50:38.624Z,92.30
2022-10-01T05:53:10.009Z,104.50
2022-10-01T05:55:38.821Z,90.40
2022-10-01T05:58:10.150Z,97.00
2022-10-01T06:00:41.247Z,102.00
2022-10-01T06:03:12.666Z,94.70
2022-10-01T06:05:43.632Z,86.40
2022-10-01T06:08:14.992Z,90.40
2022-10-01T06:10:44.698Z,86.80
2022-10-01T06:13:18.088Z,88.70
2022-10-01T06:15:46.983Z,90.40
2022-10-01T06:18:17.739Z,97.20
2022-10-01T06:20:47.942Z,102.30
2022-10-01T06:23:18.798Z,92.40
2022-10-01T06:25:47.358Z,94.90
2022-10-01T06:28:20.007Z,98.00
2022-10-01T06:30:49.235Z,99.60
2022-10-01T06:33:19.254Z,89.60
2022-10-01T06:35:49.711Z,94.30
2022-10-01T06:38:20.529Z,92.60
2022-10-01T06:40:53.916Z,89.30
2022-10-01T06:43:23.378Z,87.40
2022-10-01T06:45:53.212Z,87.40
2022-10-01T06:48:23.998Z,91.20
2022-10-01T06:50:55.425Z,83.90
2022-10-01T06:53:24.411Z,82.80
2022-10-01T06:55:55.776Z,89.30
2022-10-01T06:58:26.352Z,86.20
2022-10-01T07:01:00.739Z,85.00
2022-10-01T07:03:32.780Z,82.00
2022-10-01T07:06:09.178Z,85.80
2022-10-01T07:08:39.915Z,84.00
2022-10-01T07:11:10.822Z,82.60
2022-10-01T07:13:40.526Z,84.70
2022-10-01T07:16:09.263Z,91.90
2022-10-01T07:18:40.299Z,90.20
2022-10-01T07:21:10.504Z,80.10
2022-10-01T07:23:39.113Z,77.70
2022-10-01T07:26:08.912Z,76.60
2022-10-01T07:28:40.306Z,76.80
2022-10-01T07:31:10.853Z,79.30
2022-10-01T07:33:39.524Z,84.00
2022-10-01T07:36:09.465Z,80.60
2022-10-01T07:38:37.919Z,72.00
2022-10-01T07:41:07.002Z,70.90
2022-10-01T07:43:36.010Z,70.50
2022-10-01T07:46:07.219Z,68.40
2022-10-01T07:48:36.235Z,65.20
2022-10-01T07:51:06.208Z,69.10
2022-10-01T07:53:35.785Z,67.80
2022-10-01T07:56:06.408Z,62.00
2022-10-01T07:58:35.984Z,62.90
2022-10-01T08:01:06.611Z,65.50
2022-10-01T08:03:35.353Z,68.00
2022-10-01T08:06:06.302Z,69.00
2022-10-01T08:08:35.627Z,67.80
2022-10-01T08:11:07.178Z,63.90
2022-10-01T08:13:37.358Z,61.20
2022-10-01T08:16:09.018Z,61.00
2022-10-01T08:18:40.110Z,59.30
2022-10-01T08:21:10.528Z,55.80
2022-10-01T08:23:39.561Z,55.10
2022-10-01T08:26:11.037Z,58.00
2022-10-01T08:28:40.769Z,55.30
2022-10-01T08:31:10.288Z,54.60
2022-10-01T08:33:40.153Z,55.30
2022-10-01T08:36:08.959Z,59.20
2022-10-01T08:38:39.905Z,52.10
2022-10-01T08:41:23.421Z,49.90
2022-10-01T08:43:53.031Z,50.90
2022-10-01T08:46:25.510Z,47.80
2022-10-01T08:49:03.997Z,51.40
2022-10-01T08:51:39.992Z,48.60
2022-10-01T08:54:15.559Z,43.50
2022-10-01T08:56:46.947Z,47.90
2022-10-01T08:59:27.306Z,49.40
2022-10-01T09:02:01.177Z,43.30
2022-10-01T09:04:31.124Z,45.60
2022-10-01T09:07:08.545Z,47.80
2022-10-01T09:09:44.604Z,47.20
2022-10-01T09:12:25.759Z,48.90
2022-10-01T09:15:06.415Z,51.40
2022-10-01T09:17:45.858Z,50.70
2022-10-01T09:20:22.123Z,47.70
2022-10-01T09:22:56.842Z,47.60
2022-10-01T09:25:27.280Z,48.20
2022-10-01T09:28:02.966Z,45.50
2022-10-01T09:30:32.711Z,47.60
2022-10-01T09:33:05.452Z,44.80
2022-10-01T09:35:41.225Z,45.70
2022-10-01T09:38:15.758Z,44.40
2022-10-01T09:40:52.470Z,41.70
2022-10-01T09:43:22.781Z,41.40
2022-10-01T09:45:52.218Z,39.20
2022-10-01T09:48:26.973Z,40.00
2022-10-01T09:50:59.434Z,42.40
2022-10-01T09:53:34.772Z,44.30
2022-10-01T09:56:09.252Z,45.00
2022-10-01T09:58:40.662Z,44.00
2022-10-01T10:01:18.612Z,43.90
2022-10-01T10:03:56.422Z,41.80
2022-10-01T10:06:27.686Z,35.40
2022-10-01T10:08:59.747Z,37.10
2022-10-01T10:11:30.803Z,40.30
2022-10-01T10:14:00.972Z,35.60
2022-10-01T10:16:34.569Z,37.60
2022-10-01T10:19:09.740Z,35.60
2022-10-01T10:21:38.539Z,40.70
2022-10-01T10:24:26.079Z,37.50
2022-10-01T10:26:57.872Z,34.80
2022-10-01T10:29:29.851Z,35.70
2022-10-01T10:32:02.969Z,36.90
2022-10-01T10:34:35.387Z,36.20
2022-10-01T10:37:10.885Z,35.50
2022-10-01T10:39:41.997Z,36.00
2022-10-01T10:42:16.234Z,32.20
2022-10-01T10:44:46.984Z,32.90
2022-10-01T10:47:19.712Z,33.60
2022-10-01T10:49:50.870Z,34.90
2022-10-01T10:52:23.007Z,36.20
2022-10-01T10:54:52.707Z,34.00
2022-10-01T10:57:27.098Z,34.30
2022-10-01T11:00:02.699Z,36.70
2022-10-01T11:02:33.182Z,40.00
2022-10-01T11:05:04.333Z,41.30
2022-10-01T11:07:35.142Z,40.40
2022-10-01T11:10:22.229Z,39.50
2022-10-01T11:13:03.386Z,37.70
2022-10-01T11:15:48.580Z,38.50
2022-10-01T11:18:30.106Z,36.30
2022-10-01T11:21:12.449Z,38.60
2022-10-01T11:23:53.320Z,37.20
2022-10-01T11:26:26.598Z,34.80
2022-10-01T11:29:07.287Z,36.60
2022-10-01T11:31:41.981Z,31.30
2022-10-01T11:34:38.881Z,23.90
2022-10-01T11:37:17.223Z,31.10
2022-10-01T11:39:47.313Z,33.70
2022-10-01T11:42:21.498Z,30.50
2022-10-01T11:45:00.548Z,26.10
2022-10-01T11:47:34.203Z,25.70
2022-10-01T11:50:04.946Z,28.40
2022-10-01T11:52:38.098Z,21.70
2022-10-01T11:55:32.168Z,21.30
2022-10-01T11:58:23.238Z,23.00
2022-10-01T12:00:58.095Z,24.20
2022-10-01T12:03:32.902Z,23.40
2022-10-01T12:06:02.785Z,24.30
2022-10-01T12:08:33.500Z,24.00
2022-10-01T12:11:15.792Z,26.80
2022-10-01T12:13:54.560Z,28.80
2022-10-01T12:16:31.069Z,28.90
2022-10-01T12:19:04.100Z,26.60
2022-10-01T12:21:39.627Z,25.50
2022-10-01T12:24:15.116Z,29.20
2022-10-01T12:26:53.727Z,26.30
2022-10-01T12:29:26.328Z,30.70
2022-10-01T12:32:00.157Z,28.30
2022-10-01T12:34:36.111Z,30.10
2022-10-01T12:37:15.851Z,27.10
2022-10-01T12:39:53.967Z,26.70
2022-10-01T12:42:47.347Z,30.40
2022-10-01T12:45:25.497Z,28.50
2022-10-01T12:48:02.692Z,26.00
2022-10-01T12:50:39.045Z,26.40
2022-10-01T12:53:20.239Z,28.00
2022-10-01T12:55:57.009Z,24.60
2022-10-01T12:58:57.301Z,25.70
2022-10-01T13:01:40.558Z,25.60
2022-10-01T13:04:26.157Z,24.80
2022-10-01T13:07:07.695Z,25.30
2022-10-01T13:09:46.588Z,26.20
2022-10-01T13:12:32.419Z,26.30
2022-10-01T13:15:02.047Z,24.10
2022-10-01T13:17:36.515Z,26.70
2022-10-01T13:20:12.188Z,28.50
2022-10-01T13:22:45.392Z,29.60
2022-10-01T13:25:27.133Z,28.40
2022-10-01T13:28:03.676Z,25.40
2022-10-01T13:30:41.397Z,28.60
2022-10-01T13:33:23.996Z,29.50
2022-10-01T13:35:58.180Z,25.90
2022-10-01T13:38:43.294Z,27.30
2022-10-01T13:41:20.991Z,25.10
2022-10-01T13:43:59.409Z,27.10
2022-10-01T13:46:33.388Z,27.50
2022-10-01T13:49:07.199Z,28.50
2022-10-01T13:51:41.352Z,28.00
2022-10-01T13:54:24.046Z,30.10
2022-10-01T13:57:07.459Z,28.80
2022-10-01T13:59:39.117Z,32.40
2022-10-01T14:02:28.893Z,27.10
2022-10-01T14:05:08.160Z,30.50
2022-10-01T14:07:39.385Z,30.50
2022-10-01T14:10:13.505Z,29.60
2022-10-01T14:13:05.385Z,30.40
2022-10-01T14:16:02.893Z,32.80
2022-10-01T14:18:36.622Z,33.70
2022-10-01T14:21:18.094Z,34.50
2022-10-01T14:23:53.558Z,32.80
2022-10-01T14:26:29.290Z,32.90
2022-10-01T14:29:06.461Z,31.80
2022-10-01T14:31:47.434Z,30.90
2022-10-01T14:34:43.663Z,34.50
2022-10-01T14:37:17.365Z,34.60
2022-10-01T14:39:46.893Z,33.20
2022-10-01T14:42:18.129Z,34.60
2022-10-01T14:44:47.742Z,36.50
2022-10-01T14:47:20.573Z,46.80
2022-10-01T14:49:51.876Z,39.40
2022-10-01T14:52:25.369Z,34.50
2022-10-01T14:54:59.618Z,33.30
2022-10-01T14:57:30.551Z,35.00
2022-10-01T15:00:07.499Z,31.80
2022-10-01T15:02:46.296Z,30.10
2022-10-01T15:05:25.047Z,31.30
2022-10-01T15:07:56.659Z,30.00
2022-10-01T15:10:27.037Z,29.50
2022-10-01T15:12:56.976Z,35.60
2022-10-01T15:15:31.974Z,33.30
2022-10-01T15:18:03.115Z,32.10
2022-10-01T15:20:34.564Z,33.60
2022-10-01T15:23:07.365Z,31.30
2022-10-01T15:25:37.360Z,36.30
2022-10-01T15:28:29.606Z,27.80
2022-10-01T15:31:04.779Z,28.90
2022-10-01T15:33:35.537Z,28.00
2022-10-01T15:36:06.479Z,27.30
2022-10-01T15:38:36.906Z,31.90
2022-10-01T15:41:30.008Z,32.80
2022-10-01T15:43:57.979Z,33.50
2022-10-01T15:46:34.209Z,47.80
2022-10-01T15:49:17.323Z,48.20
2022-10-01T15:52:07.288Z,54.80
2022-10-01T15:54:37.718Z,44.20
2022-10-01T15:57:08.809Z,41.20
2022-10-01T15:59:40.796Z,39.30
2022-10-01T16:02:18.011Z,43.80
2022-10-01T16:04:50.506Z,35.10
2022-10-01T16:07:29.721Z,23.70
2022-10-01T16:10:14.744Z,34.80
2022-10-01T16:12:44.620Z,34.00
2022-10-01T16:15:26.115Z,33.10
2022-10-01T16:17:57.534Z,26.70
2022-10-01T16:20:37.976Z,24.80
2022-10-01T16:23:35.506Z,25.50
2022-10-01T16:26:11.962Z,30.80
2022-10-01T16:28:41.049Z,19.60
2022-10-01T16:31:09.775Z,19.40
2022-10-01T16:33:38.346Z,17.60
2022-10-01T16:36:13.998Z,19.20
2022-10-01T16:38:45.196Z,20.60
2022-10-01T16:41:19.120Z,21.70
2022-10-01T16:43:50.163Z,27.30
2022-10-01T16:46:19.912Z,38.50
2022-10-01T16:48:51.163Z,146.90
2022-10-01T16:51:20.019Z,72.10
2022-10-01T16:53:54.807Z,39.60
2022-10-01T16:56:27.336Z,28.00
2022-10-01T16:58:57.280Z,25.30
2022-10-01T17:01:32.675Z,64.30
2022-10-01T17:04:02.718Z,31.50
2022-10-01T17:06:33.428Z,23.80
2022-10-01T17:09:04.572Z,23.80
2022-10-01T17:11:35.549Z,40.70
2022-10-01T17:14:08.290Z,30.60
2022-10-01T17:16:37.439Z,25.60
2022-10-01T17:19:08.170Z,21.80
2022-10-01T17:21:38.716Z,24.20
2022-10-01T17:24:10.411Z,29.60
2022-10-01T17:26:42.315Z,35.10
2022-10-01T17:29:12.955Z,64.00
2022-10-01T17:31:50.012Z,71.70
2022-10-01T17:34:20.589Z,63.20
2022-10-01T17:36:51.291Z,47.10
2022-10-01T17:39:21.939Z,42.40
2022-10-01T17:41:51.640Z,38.40
2022-10-01T17:44:22.856Z,38.60
2022-10-01T17:46:53.342Z,35.60
2022-10-01T17:49:23.763Z,37.20
2022-10-01T17:51:53.811Z,28.70
2022-10-01T17:54:23.397Z,62.30
2022-10-01T17:56:54.321Z,35.50
2022-10-01T17:59:23.685Z,47.20
2022-10-01T18:01:54.092Z,32.60
2022-10-01T18:04:25.069Z,31.40
2022-10-01T18:06:59.068Z,32.30
2022-10-01T18:09:32.440Z,33.60
2022-10-01T18:12:02.902Z,93.20
2022-10-01T18:14:32.687Z,27.30
2022-10-01T18:17:02.830Z,35.00
2022-10-01T18:22:23.550Z,24.70
2022-10-01T18:24:52.303Z,16.40
2022-10-01T18:27:24.042Z,22.20
2022-10-01T18:29:54.927Z,18.90
2022-10-01T18:32:25.194Z,35.70
2022-10-01T18:34:58.358Z,14.90
2022-10-01T18:37:39.071Z,15.60
2022-10-01T18:40:15.218Z,9.70
2022-10-01T18:42:48.981Z,9.40
2022-10-01T18:45:21.313Z,10.80
2022-10-01T18:48:03.967Z,10.40
2022-10-01T18:50:40.608Z,12.90
2022-10-01T18:53:26.354Z,13.30
2022-10-01T18:56:20.057Z,8.70
2022-10-01T18:59:21.802Z,11.70
2022-10-01T19:02:02.558Z,11.60
2022-10-01T19:04:52.994Z,13.70
2022-10-01T19:07:33.603Z,19.00
2022-10-01T19:10:10.135Z,17.70
2022-10-01T19:12:50.137Z,14.30
2022-10-01T19:15:30.991Z,12.80
2022-10-01T19:18:14.693Z,13.70
2022-10-01T19:21:04.281Z,14.00
2022-10-01T19:24:09.259Z,37.10
2022-10-01T19:26:43.090Z,16.70
2022-10-01T19:29:25.189Z,184.50
2022-10-01T19:31:58.957Z,10.30
2022-10-01T19:34:33.182Z,11.00
2022-10-01T19:37:10.482Z,12.60
2022-10-01T19:39:42.845Z,12.00
2022-10-01T19:42:16.857Z,25.90
2022-10-01T19:44:55.533Z,13.40
2022-10-01T19:47:31.715Z,10.60
2022-10-01T19:50:06.741Z,12.80
2022-10-01T19:52:38.023Z,19.40
2022-10-01T19:55:16.730Z,11.50
2022-10-01T19:57:48.045Z,13.10
2022-10-01T20:00:21.106Z,12.50
2022-10-01T20:02:56.652Z,9.30
2022-10-01T20:05:29.153Z,8.30
2022-10-01T20:08:06.501Z,13.70
2022-10-01T20:10:39.184Z,9.00
2022-10-01T20:13:22.243Z,7.40
2022-10-01T20:15:58.595Z,6.80
2022-10-01T20:18:32.337Z,6.70
2022-10-01T20:21:13.966Z,6.00
2022-10-01T20:23:46.847Z,6.40
2022-10-01T20:26:26.617Z,6.90
2022-10-01T20:29:18.742Z,8.10
2022-10-01T20:31:55.176Z,7.30
2022-10-01T20:34:31.935Z,11.90
2022-10-01T20:37:13.744Z,7.50
2022-10-01T20:39:48.476Z,8.60
2022-10-01T20:42:24.911Z,8.80
2022-10-01T20:44:55.064Z,9.20
2022-10-01T20:47:31.174Z,9.00
2022-10-01T20:50:09.125Z,8.70
2022-10-01T20:52:44.229Z,9.80
2022-10-01T20:55:18.639Z,9.40
2022-10-01T20:57:52.065Z,10.90
2022-10-01T21:00:23.043Z,10.20
2022-10-01T21:02:59.639Z,10.40
2022-10-01T21:05:32.587Z,10.80
2022-10-01T21:08:06.191Z,9.80
2022-10-01T21:10:39.691Z,11.20
2022-10-01T21:13:16.203Z,13.20
2022-10-01T21:15:54.275Z,14.00
2022-10-01T21:18:34.327Z,14.40
2022-10-01T21:21:11.333Z,13.60
2022-10-01T21:23:48.958Z,15.10
2022-10-01T21:26:24.903Z,15.70
2022-10-01T21:29:22.134Z,13.50
2022-10-01T21:32:01.039Z,13.20
2022-10-01T21:34:34.471Z,14.60
2022-10-01T21:37:10.401Z,14.20
2022-10-01T21:39:46.605Z,14.30
2022-10-01T21:42:17.300Z,14.80
2022-10-01T21:45:06.524Z,14.80
2022-10-01T21:47:54.039Z,15.30
2022-10-01T21:50:35.743Z,15.90
2022-10-01T21:53:16.089Z,16.50
2022-10-01T21:56:09.590Z,16.00
2022-10-01T21:58:50.959Z,14.50
2022-10-01T22:01:27.651Z,15.80
2022-10-01T22:04:01.472Z,14.00
2022-10-01T22:06:35.538Z,15.00
2022-10-01T22:09:08.978Z,15.60
2022-10-01T22:11:42.166Z,17.00
2022-10-01T22:14:16.279Z,14.50
2022-10-01T22:16:49.883Z,15.20
2022-10-01T22:19:22.798Z,13.90
2022-10-01T22:21:56.360Z,15.70
2022-10-01T22:24:30.659Z,14.70
2022-10-01T22:27:05.098Z,12.70
2022-10-01T22:29:42.708Z,11.50
2022-10-01T22:32:15.558Z,11.20
2022-10-01T22:34:46.828Z,13.70
2022-10-01T22:37:20.568Z,9.80
2022-10-01T22:39:55.104Z,8.90
2022-10-01T22:42:29.767Z,10.30
2022-10-01T22:45:06.686Z,8.80
2022-10-01T22:48:04.717Z,10.00
2022-10-01T22:50:40.929Z,10.40
2022-10-01T22:53:28.592Z,10.40
2022-10-01T22:55:58.201Z,10.50
2022-10-01T22:58:45.720Z,9.60
2022-10-01T23:01:18.602Z,10.90
2022-10-01T23:03:55.744Z,11.00
2022-10-01T23:06:30.988Z,11.10
2022-10-01T23:09:05.147Z,12.10
2022-10-01T23:11:46.232Z,10.70
2022-10-01T23:14:26.299Z,10.40
2022-10-01T23:16:59.052Z,10.40
2022-10-01T23:19:35.613Z,9.50
2022-10-01T23:22:11.476Z,9.80
2022-10-01T23:24:57.161Z,10.70
2022-10-01T23:27:32.800Z,11.80
2022-10-01T23:30:11.081Z,11.90
2022-10-01T23:33:06.937Z,10.50
2022-10-01T23:35:45.638Z,10.80
2022-10-01T23:38:28.269Z,11.30
2022-10-01T23:41:05.432Z,11.50
2022-10-01T23:43:39.725Z,9.30
2022-10-01T23:46:11.413Z,10.00
2022-10-01T23:48:44.048Z,10.30
2022-10-01T23:51:20.004Z,10.90
2022-10-01T23:53:55.441Z,12.00
2022-10-01T23:56:46.631Z,10.40
2022-10-01T23:59:20.406Z,10.70
